Time;durP1;ratioP1;P1;durP2;ratioP2;P2;SDS_P1;SDS_P2;PMS_P1;PMS_P2;Temp;Humidity;BMP_temperature;BMP_pressure;BME280_temperature;BME280_humidity;BME280_pressure;Samples;Min_cycle;Max_cycle;Signal;HPM_P1;HPM_P2
2024/03/13 00:01:13;;;;;;;21.45;17.70;;;12.50;99.90;;;;;;5052671;28;20259;-78
2024/03/13 00:03:42;;;;;;;24.00;20.35;;;12.50;99.90;;;;;;5053096;28;20233;-77
2024/03/13 00:06:10;;;;;;;25.52;20.02;;;12.50;99.90;;;;;;5052613;28;20225;-77
2024/03/13 00:08:37;;;;;;;21.25;18.40;;;12.50;99.90;;;;;;5052709;28;20286;-77
2024/03/13 00:11:04;;;;;;;21.10;18.90;;;12.50;99.90;;;;;;5052481;28;20263;-77
2024/03/13 00:13:32;;;;;;;23.70;19.35;;;12.50;99.90;;;;;;5052321;28;20630;-77
2024/03/13 00:15:59;;;;;;;20.70;17.30;;;12.50;99.90;;;;;;5052887;28;20289;-77
2024/03/13 00:18:26;;;;;;;23.55;20.02;;;12.50;99.90;;;;;;5052460;28;20593;-77
2024/03/13 00:20:55;;;;;;;24.48;18.48;;;12.40;99.90;;;;;;5052666;28;20231;-77
2024/03/13 00:23:22;;;;;;;23.40;19.20;;;12.40;99.90;;;;;;5051805;28;20242;-77
2024/03/13 00:25:49;;;;;;;23.00;19.70;;;12.40;99.90;;;;;;5052843;28;20616;-77
2024/03/13 00:28:16;;;;;;;21.45;18.15;;;12.40;99.90;;;;;;5051378;28;20224;-77
2024/03/13 00:30:43;;;;;;;23.42;19.58;;;12.40;99.90;;;;;;5052983;28;20626;-77
2024/03/13 00:33:10;;;;;;;23.70;17.70;;;12.40;99.90;;;;;;5052268;28;20252;-78
2024/03/13 00:35:38;;;;;;;21.63;19.05;;;12.40;99.90;;;;;;5052235;28;20224;-77
2024/03/13 00:38:06;;;;;;;26.38;20.63;;;12.40;99.90;;;;;;5052652;28;20248;-77
2024/03/13 00:40:34;;;;;;;20.45;16.63;;;12.40;99.90;;;;;;5052143;28;20228;-77
2024/03/13 00:43:02;;;;;;;21.10;17.77;;;12.40;99.90;;;;;;5052464;28;20315;-77
2024/03/13 00:45:29;;;;;;;23.27;19.45;;;12.40;99.90;;;;;;5051986;28;20229;-77
2024/03/13 00:47:56;;;;;;;21.50;18.67;;;12.40;99.90;;;;;;5052999;28;20216;-77
2024/03/13 00:50:24;;;;;;;20.05;17.58;;;12.40;99.90;;;;;;5055488;28;20228;-78
2024/03/13 00:52:53;;;;;;;23.63;17.90;;;12.40;99.90;;;;;;5056027;28;20285;-77
2024/03/13 00:55:23;;;;;;;22.45;17.42;;;12.30;99.90;;;;;;5055252;28;20300;-77
2024/03/13 00:57:50;;;;;;;19.52;17.40;;;12.30;99.90;;;;;;5056235;28;20227;-77
2024/03/13 01:00:21;;;;;;;20.42;18.00;;;12.30;99.90;;;;;;5055547;28;20239;-77
2024/03/13 01:02:53;;;;;;;18.65;16.67;;;12.30;99.90;;;;;;5056136;28;20712;-77
2024/03/13 01:05:21;;;;;;;19.17;16.45;;;12.30;99.90;;;;;;5055408;28;20224;-78
2024/03/13 01:07:50;;;;;;;22.60;17.80;;;12.40;99.90;;;;;;5056218;28;20571;-77
2024/03/13 01:10:17;;;;;;;23.63;19.40;;;12.30;99.90;;;;;;5055474;28;20308;-77
2024/03/13 01:12:45;;;;;;;17.75;15.88;;;12.30;99.90;;;;;;5055916;28;20232;-77
2024/03/13 01:15:14;;;;;;;20.08;16.55;;;12.30;99.90;;;;;;5056082;28;20270;-78
2024/03/13 01:17:42;;;;;;;19.20;17.20;;;12.30;99.90;;;;;;5054950;28;20224;-77
2024/03/13 01:20:12;;;;;;;23.38;17.25;;;12.30;99.90;;;;;;5055313;28;20236;-77
2024/03/13 01:22:43;;;;;;;17.35;15.55;;;12.30;99.90;;;;;;5055229;28;20315;-77
2024/03/13 01:25:12;;;;;;;20.38;16.90;;;12.20;99.90;;;;;;5054073;28;20723;-77
2024/03/13 01:27:40;;;;;;;20.92;16.85;;;12.20;99.90;;;;;;5054745;28;20274;-77
2024/03/13 01:30:11;;;;;;;21.63;16.80;;;12.20;99.90;;;;;;5055926;28;20232;-77
2024/03/13 01:32:39;;;;;;;17.60;15.35;;;12.20;99.90;;;;;;5055153;28;20243;-77
2024/03/13 01:35:07;;;;;;;22.25;18.20;;;12.20;99.90;;;;;;5055054;28;20236;-77
2024/03/13 01:40:19;;;;;;;22.42;16.83;;;12.20;99.90;;;;;;5055754;28;20237;-77
2024/03/13 01:57:14;;;;;;;17.48;15.23;;;12.20;99.90;;;;;;5054731;28;20223;-77
2024/03/13 01:59:49;;;;;;;20.55;16.48;;;12.10;99.90;;;;;;5053513;28;20546;-77
2024/03/13 02:02:24;;;;;;;19.42;16.15;;;12.20;99.90;;;;;;5054927;28;20248;-77
2024/03/13 02:04:53;;;;;;;21.58;16.50;;;12.20;99.90;;;;;;5054979;28;20226;-77
2024/03/13 02:07:22;;;;;;;19.58;16.38;;;12.20;99.90;;;;;;5054634;28;20602;-77
2024/03/13 02:09:52;;;;;;;19.75;16.13;;;12.20;99.90;;;;;;5055345;28;20569;-77
2024/03/13 02:12:19;;;;;;;21.13;17.20;;;12.20;99.90;;;;;;5054097;28;20251;-77
2024/03/13 02:14:46;;;;;;;17.98;16.00;;;12.20;99.90;;;;;;5054819;28;20312;-77
2024/03/13 02:17:13;;;;;;;20.13;17.23;;;12.10;99.90;;;;;;5054508;28;20229;-76
2024/03/13 02:19:42;;;;;;;19.92;15.35;;;12.10;99.90;;;;;;5054009;28;20584;-77
2024/03/13 02:22:09;;;;;;;24.17;17.30;;;12.10;99.90;;;;;;5053728;28;20270;-77
2024/03/13 02:24:36;;;;;;;22.75;18.42;;;12.10;99.90;;;;;;5054467;28;20232;-77
2024/03/13 02:27:10;;;;;;;17.52;15.18;;;12.10;99.90;;;;;;5020673;28;20229;-77
2024/03/13 02:29:38;;;;;;;21.27;17.88;;;12.10;99.90;;;;;;5021262;28;20235;-77
2024/03/13 02:32:05;;;;;;;18.65;14.63;;;12.10;99.90;;;;;;5020502;28;20220;-77
2024/03/13 02:34:34;;;;;;;19.13;16.00;;;12.10;99.90;;;;;;5020618;28;20229;-77
2024/03/13 02:37:01;;;;;;;18.15;16.20;;;12.10;99.90;;;;;;5020495;28;20229;-77
2024/03/13 02:39:28;;;;;;;18.38;16.50;;;12.10;99.90;;;;;;5021157;28;20220;-77
2024/03/13 02:41:56;;;;;;;20.90;16.42;;;12.10;99.90;;;;;;5020460;28;20216;-77
2024/03/13 02:44:23;;;;;;;20.33;17.60;;;12.10;99.90;;;;;;5020243;28;20228;-77
2024/03/13 02:46:50;;;;;;;24.15;18.35;;;12.10;99.90;;;;;;5020868;28;20251;-77
2024/03/13 02:49:18;;;;;;;24.67;17.83;;;12.10;99.90;;;;;;5019980;28;20229;-77
2024/03/13 02:51:48;;;;;;;19.52;17.52;;;12.10;99.90;;;;;;5020116;28;20217;-77
2024/03/13 02:54:16;;;;;;;20.98;17.73;;;12.10;99.90;;;;;;5021084;28;20224;-77
2024/03/13 02:56:46;;;;;;;20.52;17.88;;;12.10;99.90;;;;;;5019744;28;20224;-77
2024/03/13 02:59:17;;;;;;;22.27;17.73;;;12.10;99.90;;;;;;5020036;28;20220;-76
2024/03/13 03:01:45;;;;;;;22.40;18.45;;;12.10;99.90;;;;;;5021736;28;20224;-77
2024/03/13 03:04:12;;;;;;;23.83;18.15;;;12.10;99.90;;;;;;5019925;28;20307;-77
2024/03/13 03:06:39;;;;;;;21.25;17.73;;;12.10;99.90;;;;;;5020282;28;20224;-78
2024/03/13 03:09:06;;;;;;;20.27;18.02;;;12.10;99.90;;;;;;5019838;28;20252;-77
2024/03/13 03:11:33;;;;;;;20.98;16.63;;;12.10;99.90;;;;;;5019781;28;20240;-77
2024/03/13 03:14:04;;;;;;;26.13;21.13;;;12.10;99.90;;;;;;5020198;28;20233;-77
2024/03/13 03:16:35;;;;;;;22.73;19.23;;;12.20;99.90;;;;;;5020792;28;20217;-77
2024/03/13 03:19:02;;;;;;;23.30;18.95;;;12.20;99.90;;;;;;5021234;28;20220;-77
2024/03/13 03:21:33;;;;;;;25.45;19.20;;;12.10;99.90;;;;;;5019001;28;20231;-77
2024/03/13 03:24:00;;;;;;;19.85;17.42;;;12.10;99.90;;;;;;5020699;28;20236;-77
2024/03/13 03:26:28;;;;;;;21.67;19.13;;;12.10;99.90;;;;;;5019575;28;20235;-77
2024/03/13 03:28:56;;;;;;;21.75;18.15;;;12.10;99.90;;;;;;5020032;28;20217;-77
2024/03/13 03:31:24;;;;;;;20.60;16.92;;;12.00;99.90;;;;;;5019607;28;20278;-78
2024/03/13 03:33:51;;;;;;;23.55;21.15;;;12.00;99.90;;;;;;5019896;28;20255;-77
2024/03/13 03:36:19;;;;;;;24.90;19.17;;;12.00;99.90;;;;;;5018830;28;20307;-77
2024/03/13 03:38:50;;;;;;;24.90;19.88;;;12.00;99.90;;;;;;5019747;28;20227;-77
2024/03/13 03:41:17;;;;;;;25.40;21.35;;;12.00;99.90;;;;;;5020692;28;20248;-77
2024/03/13 03:43:45;;;;;;;23.52;20.83;;;12.00;99.90;;;;;;5019375;28;20238;-77
2024/03/13 03:46:14;;;;;;;24.65;19.98;;;12.00;99.90;;;;;;5019256;28;20592;-77
2024/03/13 03:48:41;;;;;;;29.08;23.40;;;11.90;99.90;;;;;;5020221;28;20236;-77
2024/03/13 03:51:08;;;;;;;25.73;21.08;;;11.90;99.90;;;;;;5019512;28;20547;-77
2024/03/13 03:53:36;;;;;;;26.25;20.13;;;11.90;99.90;;;;;;5019357;28;20225;-77
2024/03/13 03:56:03;;;;;;;24.75;21.27;;;11.90;99.90;;;;;;5019628;28;20311;-77
2024/03/13 03:58:30;;;;;;;26.77;22.65;;;11.90;99.90;;;;;;5018880;28;20225;-77
2024/03/13 04:00:58;;;;;;;23.20;20.70;;;11.90;99.90;;;;;;5019229;28;20232;-77
2024/03/13 04:03:25;;;;;;;29.90;23.25;;;11.90;99.90;;;;;;5018874;28;20232;-77
2024/03/13 04:05:52;;;;;;;26.67;21.60;;;11.90;99.90;;;;;;5019574;28;20564;-77
2024/03/13 04:08:20;;;;;;;29.55;23.50;;;11.80;99.90;;;;;;5019165;28;20286;-77
2024/03/13 04:10:47;;;;;;;28.02;22.30;;;11.80;99.90;;;;;;5019520;28;20224;-77
2024/03/13 04:13:15;;;;;;;24.98;21.33;;;11.80;99.90;;;;;;5018807;28;20662;-78
2024/03/13 04:15:43;;;;;;;25.75;21.60;;;11.80;99.90;;;;;;5019874;28;20232;-77
2024/03/13 04:18:12;;;;;;;30.48;23.55;;;11.70;99.90;;;;;;5019748;28;20628;-77
2024/03/13 04:20:39;;;;;;;28.65;24.38;;;11.70;99.90;;;;;;5019437;28;20224;-77
2024/03/13 04:23:07;;;;;;;26.45;22.50;;;11.70;99.90;;;;;;5016305;28;20237;-77
2024/03/13 04:25:36;;;;;;;28.30;23.38;;;11.70;99.90;;;;;;5019671;28;20300;-77
2024/03/13 04:28:04;;;;;;;25.00;21.75;;;11.70;99.90;;;;;;5020301;28;20291;-78
2024/03/13 04:30:31;;;;;;;27.15;21.55;;;11.60;99.90;;;;;;5009461;28;20557;-77
2024/03/13 04:32:58;;;;;;;27.70;21.92;;;11.50;99.90;;;;;;5018994;28;20221;-77
2024/03/13 04:35:25;;;;;;;26.80;21.90;;;11.50;99.90;;;;;;5018935;28;20241;-77
2024/03/13 04:37:53;;;;;;;27.83;22.65;;;11.50;99.90;;;;;;5019905;28;20228;-77
2024/03/13 04:40:23;;;;;;;28.45;22.85;;;11.50;99.90;;;;;;5018906;28;20678;-77
2024/03/13 04:42:50;;;;;;;27.42;21.73;;;11.50;99.90;;;;;;5019878;28;20232;-77
2024/03/13 04:45:17;;;;;;;28.33;21.10;;;11.50;99.90;;;;;;5019692;28;20225;-77
2024/03/13 04:47:45;;;;;;;33.75;25.13;;;11.40;99.90;;;;;;5019334;28;20233;-77
2024/03/13 04:50:12;;;;;;;29.45;23.13;;;11.40;99.90;;;;;;5019367;28;20316;-77
2024/03/13 04:52:39;;;;;;;28.95;23.05;;;11.40;99.90;;;;;;5018740;28;20247;-77
2024/03/13 04:55:07;;;;;;;30.48;24.30;;;11.40;99.90;;;;;;5019338;28;20221;-77
2024/03/13 04:57:34;;;;;;;27.98;23.00;;;11.30;99.90;;;;;;5018989;28;20222;-77
2024/03/13 05:00:01;;;;;;;28.33;23.05;;;11.30;99.90;;;;;;5019142;28;20229;-77
2024/03/13 05:02:29;;;;;;;26.38;23.00;;;11.30;99.90;;;;;;5018814;28;20302;-77
2024/03/13 05:04:57;;;;;;;27.52;22.40;;;11.30;99.90;;;;;;5018981;28;20260;-77
2024/03/13 05:07:24;;;;;;;26.17;20.60;;;11.20;99.90;;;;;;5019079;28;20616;-77
2024/03/13 05:09:53;;;;;;;28.75;22.13;;;11.20;99.90;;;;;;5019059;28;20249;-77
2024/03/13 05:12:20;;;;;;;26.98;21.98;;;11.20;99.90;;;;;;5018856;28;20225;-76
2024/03/13 05:14:47;;;;;;;30.92;23.65;;;11.20;99.90;;;;;;5018288;28;20217;-76
2024/03/13 05:17:15;;;;;;;30.45;23.90;;;11.10;99.90;;;;;;5018721;28;20240;-75
2024/03/13 05:19:46;;;;;;;28.33;22.30;;;11.10;99.90;;;;;;5018215;28;20305;-75
2024/03/13 05:22:13;;;;;;;30.02;23.50;;;11.10;99.90;;;;;;5019331;28;20225;-75
2024/03/13 05:24:41;;;;;;;31.30;25.38;;;11.00;99.90;;;;;;5017813;28;20574;-76
2024/03/13 05:27:09;;;;;;;30.00;23.80;;;11.10;99.90;;;;;;5018909;28;20603;-76
2024/03/13 05:29:37;;;;;;;29.50;23.42;;;11.10;99.90;;;;;;5018535;28;20705;-76
2024/03/13 05:32:09;;;;;;;34.53;23.60;;;11.00;99.90;;;;;;5018742;28;20270;-76
2024/03/13 05:34:37;;;;;;;33.47;23.25;;;11.00;99.90;;;;;;5017919;28;20287;-76
2024/03/13 05:37:05;;;;;;;31.25;23.88;;;11.00;99.90;;;;;;5018772;28;20234;-76
2024/03/13 05:39:35;;;;;;;32.22;25.23;;;10.90;99.90;;;;;;5018080;28;20229;-75
2024/03/13 05:42:02;;;;;;;29.35;23.38;;;10.90;99.90;;;;;;5018842;28;20275;-76
2024/03/13 05:44:30;;;;;;;35.03;27.23;;;10.90;99.90;;;;;;5017944;28;20273;-75
2024/03/13 05:46:57;;;;;;;33.83;23.50;;;10.90;99.90;;;;;;5018537;28;20768;-76
2024/03/13 05:49:24;;;;;;;33.85;26.80;;;11.00;99.90;;;;;;5018205;28;20316;-76
2024/03/13 05:51:54;;;;;;;35.88;26.42;;;10.90;99.90;;;;;;5018092;28;20231;-75
2024/03/13 05:54:21;;;;;;;33.33;25.50;;;10.90;99.90;;;;;;5018026;28;20246;-75
2024/03/13 05:56:48;;;;;;;30.42;25.30;;;10.90;99.90;;;;;;5017596;28;20255;-77
2024/03/13 05:59:15;;;;;;;32.55;25.10;;;10.90;99.90;;;;;;5018164;28;20253;-77
2024/03/13 06:01:42;;;;;;;37.40;25.77;;;10.90;99.90;;;;;;5017715;28;20225;-76
2024/03/13 06:04:10;;;;;;;33.17;24.70;;;10.90;99.90;;;;;;5018172;28;20442;-76
2024/03/13 06:06:38;;;;;;;34.17;25.70;;;10.90;99.90;;;;;;5017628;28;20304;-76
2024/03/13 06:09:06;;;;;;;31.05;24.55;;;10.90;99.90;;;;;;5017729;28;20232;-76
2024/03/13 06:11:33;;;;;;;37.17;26.90;;;11.00;99.90;;;;;;5017754;28;20225;-76
2024/03/13 06:14:03;;;;;;;33.35;25.98;;;11.00;99.90;;;;;;5018001;28;20237;-76
2024/03/13 06:16:31;;;;;;;33.88;25.50;;;10.90;99.90;;;;;;5017368;28;20257;-76
2024/03/13 06:18:58;;;;;;;35.60;26.98;;;10.90;99.90;;;;;;5017674;28;20233;-76
2024/03/13 06:21:25;;;;;;;37.20;26.40;;;11.00;99.90;;;;;;5017895;28;20674;-75
2024/03/13 06:23:59;;;;;;;36.42;26.25;;;11.00;99.90;;;;;;5017241;28;20312;-76
2024/03/13 06:26:27;;;;;;;33.25;25.90;;;11.00;99.90;;;;;;5018846;28;20304;-76
2024/03/13 06:31:41;;;;;;;37.55;26.88;;;11.00;99.90;;;;;;5019711;28;20244;-76
2024/03/13 06:34:08;;;;;;;34.38;26.70;;;11.00;99.90;;;;;;5017183;28;20687;-76
2024/03/13 06:36:40;;;;;;;31.75;24.67;;;11.10;99.90;;;;;;5016413;28;20225;-76
2024/03/13 06:39:07;;;;;;;34.45;26.00;;;11.00;99.90;;;;;;5018049;28;20229;-76
2024/03/13 06:41:35;;;;;;;35.88;25.95;;;11.10;99.90;;;;;;5016971;28;20228;-76
2024/03/13 06:44:02;;;;;;;34.85;27.00;;;11.00;99.90;;;;;;5017561;28;20315;-76
2024/03/13 06:46:30;;;;;;;35.35;27.10;;;11.00;99.90;;;;;;5016901;28;20225;-76
2024/03/13 06:48:57;;;;;;;36.55;27.75;;;11.10;99.90;;;;;;5016828;28;20229;-76
2024/03/13 06:51:24;;;;;;;34.25;27.30;;;11.10;99.90;;;;;;5016934;28;20227;-75
2024/03/13 06:53:51;;;;;;;39.70;27.95;;;11.10;99.90;;;;;;5016592;28;20234;-76
2024/03/13 06:56:19;;;;;;;34.35;26.25;;;11.10;99.90;;;;;;5016300;28;20283;-76
2024/03/13 06:58:46;;;;;;;40.60;28.77;;;11.20;99.90;;;;;;5016361;28;20300;-76
2024/03/13 07:01:14;;;;;;;38.33;29.13;;;11.20;99.90;;;;;;5016631;28;20242;-75
2024/03/13 07:03:42;;;;;;;38.67;28.52;;;11.20;99.90;;;;;;4992591;23;20293;-75
2024/03/13 07:06:09;;;;;;;39.28;30.00;;;11.20;99.90;;;;;;4958972;28;20281;-75
2024/03/13 07:08:37;;;;;;;38.65;28.77;;;11.30;99.90;;;;;;4957957;28;20235;-76
2024/03/13 07:11:07;;;;;;;37.83;28.23;;;11.30;99.90;;;;;;4958438;28;20698;-75
2024/03/13 07:13:34;;;;;;;38.90;29.15;;;11.30;99.90;;;;;;4958402;28;20237;-76
2024/03/13 07:16:01;;;;;;;42.35;31.02;;;11.30;99.90;;;;;;4941874;28;20227;-76
2024/03/13 07:18:36;;;;;;;40.65;30.45;;;11.40;99.90;;;;;;4942488;28;20238;-76
2024/03/13 07:21:03;;;;;;;38.35;27.73;;;11.40;99.90;;;;;;4944078;28;20235;-76
2024/03/13 07:23:30;;;;;;;36.53;26.70;;;11.40;99.90;;;;;;4942544;28;20227;-76
2024/03/13 07:25:59;;;;;;;35.38;26.20;;;11.40;99.90;;;;;;4941722;28;20234;-76
2024/03/13 07:28:26;;;;;;;41.90;28.58;;;11.50;99.90;;;;;;4942685;28;20570;-76
2024/03/13 07:30:54;;;;;;;39.35;29.55;;;11.60;99.90;;;;;;4942050;28;20219;-75
2024/03/13 07:33:21;;;;;;;35.95;28.30;;;11.60;99.90;;;;;;4942450;28;20234;-78
2024/03/13 07:35:48;;;;;;;42.53;29.98;;;11.60;99.90;;;;;;4941852;28;20658;-76
2024/03/13 07:38:18;;;;;;;35.40;28.45;;;11.60;99.90;;;;;;4942102;28;20685;-77
2024/03/13 07:40:46;;;;;;;34.53;25.83;;;11.60;99.90;;;;;;4942431;28;20736;-78
2024/03/13 07:43:13;;;;;;;39.17;27.92;;;11.70;99.90;;;;;;4942274;28;20235;-77
2024/03/13 07:45:40;;;;;;;38.15;28.63;;;11.70;99.90;;;;;;4941178;28;20226;-77
2024/03/13 07:48:08;;;;;;;38.50;29.48;;;11.70;99.90;;;;;;4957663;28;20559;-77
2024/03/13 07:50:36;;;;;;;37.08;27.10;;;11.80;99.90;;;;;;4942206;28;20222;-77
2024/03/13 07:53:04;;;;;;;35.72;26.02;;;11.80;99.90;;;;;;4940733;28;20265;-77
2024/03/13 07:55:31;;;;;;;33.45;25.38;;;11.90;99.90;;;;;;4942335;28;20266;-77
2024/03/13 07:58:00;;;;;;;36.47;27.70;;;11.90;99.90;;;;;;4941509;28;20235;-77
2024/03/13 08:00:28;;;;;;;37.95;28.73;;;11.90;99.90;;;;;;4941986;28;20306;-77
2024/03/13 08:02:55;;;;;;;39.38;27.15;;;12.00;99.90;;;;;;4937839;28;20241;-77
2024/03/13 08:05:22;;;;;;;34.67;25.00;;;12.00;99.90;;;;;;4938640;29;20231;-77
2024/03/13 08:07:50;;;;;;;33.60;26.35;;;12.00;99.90;;;;;;4938031;28;20554;-77
2024/03/13 08:10:18;;;;;;;28.80;23.42;;;12.10;99.90;;;;;;4938541;29;20220;-77
2024/03/13 08:12:51;;;;;;;31.00;22.40;;;12.20;99.90;;;;;;4937680;28;20227;-77
2024/03/13 08:15:19;;;;;;;26.75;21.08;;;12.20;99.90;;;;;;4938505;29;20306;-77
2024/03/13 08:17:46;;;;;;;28.05;21.25;;;12.30;99.90;;;;;;4937837;28;20236;-77
2024/03/13 08:20:14;;;;;;;27.70;20.45;;;12.30;99.90;;;;;;4930712;29;20228;-78
2024/03/13 08:22:42;;;;;;;27.90;24.02;;;12.40;99.90;;;;;;4938514;29;21103;-77
2024/03/13 08:25:15;;;;;;;35.72;25.02;;;12.40;99.90;;;;;;4937938;28;20219;-77
2024/03/13 08:27:42;;;;;;;29.30;22.52;;;12.50;99.90;;;;;;4939072;29;20283;-77
2024/03/13 08:30:09;;;;;;;29.10;21.98;;;12.60;99.90;;;;;;4937274;28;20270;-77
2024/03/13 08:32:37;;;;;;;33.75;23.50;;;12.60;99.90;;;;;;4938434;29;20243;-77
2024/03/13 08:35:04;;;;;;;29.92;22.33;;;12.60;99.90;;;;;;4937867;28;20228;-77
2024/03/13 08:37:32;;;;;;;29.05;23.25;;;12.70;99.90;;;;;;4938183;29;20232;-77
2024/03/13 08:40:00;;;;;;;29.00;23.55;;;12.70;99.90;;;;;;4937841;28;20230;-77
2024/03/13 08:42:30;;;;;;;29.23;20.80;;;12.70;99.90;;;;;;4938460;29;20224;-77
2024/03/13 08:44:58;;;;;;;31.95;22.85;;;12.80;99.90;;;;;;4938274;28;20228;-77
2024/03/13 08:47:26;;;;;;;24.13;19.17;;;12.80;99.90;;;;;;4938183;29;20230;-77
2024/03/13 08:49:54;;;;;;;25.05;20.10;;;12.80;99.90;;;;;;4937907;28;20228;-78
2024/03/13 08:52:22;;;;;;;26.10;21.10;;;12.80;99.90;;;;;;4938012;29;20228;-77
2024/03/13 08:54:52;;;;;;;27.97;21.97;;;12.90;99.90;;;;;;4937718;28;20236;-77
2024/03/13 08:57:19;;;;;;;24.33;20.00;;;13.00;99.90;;;;;;4938092;29;20542;-77
2024/03/13 08:59:47;;;;;;;27.80;22.02;;;13.00;99.90;;;;;;4937433;29;20224;-77
2024/03/13 09:02:14;;;;;;;22.27;17.73;;;13.10;99.90;;;;;;4937517;28;20231;-77
2024/03/13 09:04:41;;;;;;;21.98;19.42;;;13.10;99.90;;;;;;4937907;29;20224;-77
2024/03/13 09:07:10;;;;;;;25.73;20.00;;;13.20;99.90;;;;;;4937801;28;20220;-77
2024/03/13 09:09:38;;;;;;;24.10;19.97;;;13.20;99.90;;;;;;4939077;29;20227;-77
2024/03/13 09:12:07;;;;;;;22.42;18.40;;;13.20;99.90;;;;;;4940597;28;20467;-77
2024/03/13 09:14:36;;;;;;;22.90;18.50;;;13.30;99.90;;;;;;4941986;29;20615;-77
2024/03/13 09:17:05;;;;;;;22.07;18.33;;;13.30;99.90;;;;;;4940718;28;20255;-77
2024/03/13 09:19:37;;;;;;;23.90;18.25;;;13.40;99.90;;;;;;4941504;29;20474;-77
2024/03/13 09:22:04;;;;;;;21.13;17.57;;;13.40;99.90;;;;;;4941826;28;20698;-77
2024/03/13 09:24:32;;;;;;;20.58;16.45;;;13.50;99.90;;;;;;4941281;29;20966;-77
2024/03/13 09:27:01;;;;;;;23.30;17.65;;;13.50;99.90;;;;;;4940651;28;20216;-77
2024/03/13 09:29:29;;;;;;;25.30;19.83;;;13.60;99.90;;;;;;4942006;29;20228;-77
2024/03/13 09:31:56;;;;;;;26.90;20.03;;;13.60;99.90;;;;;;4940911;28;20472;-77
2024/03/13 09:34:24;;;;;;;26.17;19.53;;;13.60;99.90;;;;;;4940846;29;20992;-77
2024/03/13 09:36:51;;;;;;;26.87;21.10;;;13.60;99.90;;;;;;4941099;29;20482;-77
2024/03/13 09:39:18;;;;;;;26.50;20.30;;;13.70;99.90;;;;;;4940711;28;20552;-77
2024/03/13 09:41:46;;;;;;;24.30;18.27;;;13.70;99.90;;;;;;4940693;29;20471;-77
2024/03/13 09:44:15;;;;;;;23.47;18.30;;;13.80;99.90;;;;;;4940487;28;20475;-77
2024/03/13 09:46:42;;;;;;;22.73;17.27;;;13.80;99.90;;;;;;4941273;29;20551;-77
2024/03/13 09:49:10;;;;;;;22.63;16.80;;;13.80;99.90;;;;;;4932120;28;20492;-77
2024/03/13 09:51:37;;;;;;;20.60;17.20;;;13.80;99.90;;;;;;4941033;29;20539;-77
2024/03/13 09:54:04;;;;;;;21.73;16.50;;;13.90;99.90;;;;;;4940071;28;20989;-77
2024/03/13 09:56:32;;;;;;;21.37;16.47;;;13.90;99.90;;;;;;4941050;29;20840;-77
2024/03/13 09:59:00;;;;;;;16.47;14.67;;;14.00;99.90;;;;;;4940087;28;20464;-77
2024/03/13 10:01:27;;;;;;;24.50;18.60;;;14.10;99.90;;;;;;4940186;29;20455;-77
2024/03/13 10:03:56;;;;;;;21.33;17.63;;;14.20;99.90;;;;;;4940474;29;20475;-78
2024/03/13 10:06:24;;;;;;;18.20;14.53;;;14.20;99.90;;;;;;4940601;28;20965;-77
2024/03/13 10:08:51;;;;;;;21.33;16.30;;;14.30;99.90;;;;;;4940350;29;20530;-77
2024/03/13 10:11:18;;;;;;;19.47;15.43;;;14.30;99.90;;;;;;4940226;28;20468;-77
2024/03/13 10:13:46;;;;;;;20.00;16.50;;;14.30;99.90;;;;;;4940688;29;20471;-77
2024/03/13 10:16:13;;;;;;;20.03;15.67;;;14.40;99.90;;;;;;4940029;28;20478;-77
2024/03/13 10:18:41;;;;;;;19.83;16.47;;;14.50;99.90;;;;;;4940125;29;20508;-77
2024/03/13 10:21:13;;;;;;;17.17;15.37;;;14.50;99.90;;;;;;4938381;28;20809;-77
2024/03/13 10:23:40;;;;;;;21.60;16.50;;;14.60;99.90;;;;;;4941840;29;20499;-77
2024/03/13 10:26:08;;;;;;;18.70;15.47;;;14.60;99.90;;;;;;4939950;28;20779;-78
2024/03/13 10:28:35;;;;;;;19.93;16.20;;;14.70;99.90;;;;;;4940270;29;20957;-77
2024/03/13 10:31:02;;;;;;;16.60;14.20;;;14.70;99.90;;;;;;4939630;28;20988;-77
2024/03/13 10:33:29;;;;;;;16.83;14.53;;;14.80;99.90;;;;;;4940230;29;20487;-77
2024/03/13 10:35:57;;;;;;;21.83;15.73;;;14.80;99.90;;;;;;4940072;29;20470;-77
2024/03/13 10:38:24;;;;;;;19.57;17.47;;;14.80;99.90;;;;;;4940213;28;20951;-74
2024/03/13 10:40:55;;;;;;;18.53;15.87;;;14.90;99.90;;;;;;4940420;29;20459;-77
2024/03/13 10:43:22;;;;;;;23.50;17.27;;;14.80;99.90;;;;;;4940169;28;20832;-77
2024/03/13 10:45:49;;;;;;;16.13;13.83;;;14.80;99.90;;;;;;4940089;29;20487;-77
2024/03/13 10:48:16;;;;;;;18.70;15.47;;;14.90;99.90;;;;;;4939519;28;20479;-77
2024/03/13 10:50:44;;;;;;;19.57;15.40;;;14.90;99.90;;;;;;4939622;29;20466;-77
2024/03/13 10:53:16;;;;;;;17.60;15.30;;;14.90;99.90;;;;;;4939123;28;20543;-77
2024/03/13 10:55:43;;;;;;;19.17;15.57;;;14.90;99.90;;;;;;4940503;29;20459;-77
2024/03/13 10:58:14;;;;;;;18.30;15.40;;;15.00;99.90;;;;;;4939081;28;20486;-77
2024/03/13 11:00:44;;;;;;;21.37;14.47;;;15.00;99.90;;;;;;4939866;29;20547;-77
2024/03/13 11:03:12;;;;;;;19.57;15.20;;;15.10;99.90;;;;;;4938771;28;20543;-77
2024/03/13 11:05:40;;;;;;;14.97;13.37;;;15.10;99.90;;;;;;4939373;29;21016;-77
2024/03/13 11:08:08;;;;;;;16.93;13.53;;;15.20;99.90;;;;;;4938893;28;20476;-77
2024/03/13 11:10:35;;;;;;;18.17;15.37;;;15.20;99.90;;;;;;4939367;29;20464;-77
2024/03/13 11:13:09;;;;;;;15.10;13.17;;;15.20;99.90;;;;;;4939374;29;20468;-77
2024/03/13 11:15:36;;;;;;;15.73;12.50;;;15.30;99.90;;;;;;4939289;28;20475;-77
2024/03/13 11:18:04;;;;;;;21.37;15.37;;;15.30;99.90;;;;;;4939140;29;20566;-77
2024/03/13 11:20:31;;;;;;;19.10;15.20;;;15.30;99.90;;;;;;4938159;28;20474;-77
2024/03/13 11:22:59;;;;;;;17.77;15.17;;;15.30;99.90;;;;;;4938626;29;20478;-77
2024/03/13 11:25:26;;;;;;;19.40;15.40;;;15.30;99.90;;;;;;4938803;28;20992;-76
2024/03/13 11:27:54;;;;;;;16.77;14.90;;;15.40;99.90;;;;;;4938253;29;20867;-77
2024/03/13 11:30:21;;;;;;;16.57;14.80;;;15.40;99.90;;;;;;4938682;28;20459;-77
2024/03/13 11:32:50;;;;;;;17.10;15.03;;;15.40;99.90;;;;;;4939007;29;20471;-77
2024/03/13 11:35:17;;;;;;;15.07;13.10;;;15.50;99.90;;;;;;4938903;28;20558;-77
2024/03/13 11:37:45;;;;;;;17.23;15.03;;;15.50;99.90;;;;;;4939041;29;20472;-76
2024/03/13 11:40:12;;;;;;;18.70;13.40;;;15.50;99.90;;;;;;4938891;29;20476;-77
2024/03/13 11:42:41;;;;;;;15.03;13.40;;;15.50;99.90;;;;;;4938676;28;20468;-77
2024/03/13 11:45:16;;;;;;;15.97;14.27;;;15.60;99.90;;;;;;4938854;29;20468;-77
2024/03/13 11:47:47;;;;;;;14.57;12.27;;;15.60;99.80;;;;;;4938853;28;20771;-77
2024/03/13 11:50:14;;;;;;;14.00;12.60;;;15.70;99.80;;;;;;4938864;29;20472;-77
2024/03/13 11:53:06;;;;;;;16.23;14.50;;;15.80;99.80;;;;;;4938477;28;20563;-77
2024/03/13 11:55:34;;;;;;;15.23;12.93;;;15.90;99.80;;;;;;4954090;28;20471;-77
2024/03/13 11:58:06;;;;;;;12.33;10.93;;;15.90;99.20;;;;;;4938477;29;20984;-77
2024/03/13 12:00:33;;;;;;;18.63;14.37;;;15.90;99.20;;;;;;4938493;28;20474;-77
2024/03/13 12:03:02;;;;;;;14.60;13.10;;;16.00;99.00;;;;;;4938348;29;20551;-77
2024/03/13 12:05:36;;;;;;;12.53;11.27;;;16.00;98.80;;;;;;4938271;28;20468;-77
2024/03/13 12:08:03;;;;;;;13.27;10.73;;;16.00;98.50;;;;;;4939082;29;20464;-77
2024/03/13 12:10:31;;;;;;;12.13;10.40;;;16.10;98.40;;;;;;4938012;28;21005;-77
2024/03/13 12:12:58;;;;;;;13.77;12.37;;;16.10;98.20;;;;;;4938563;29;20467;-77
2024/03/13 12:15:28;;;;;;;12.50;11.23;;;16.20;98.10;;;;;;4937872;28;20471;-77
2024/03/13 12:17:56;;;;;;;12.87;11.57;;;16.10;97.30;;;;;;4938439;29;20814;-77
2024/03/13 12:20:25;;;;;;;13.20;11.17;;;16.10;97.10;;;;;;4938002;28;20471;-77
2024/03/13 12:22:52;;;;;;;13.17;11.80;;;16.10;97.20;;;;;;4938458;29;20468;-77
2024/03/13 12:25:19;;;;;;;12.23;11.00;;;16.10;97.10;;;;;;4931824;28;20474;-77
2024/03/13 12:27:47;;;;;;;11.33;10.33;;;16.10;96.80;;;;;;4938049;28;20460;-77
2024/03/13 12:30:15;;;;;;;12.07;10.70;;;16.10;96.90;;;;;;4932411;28;20530;-77
2024/03/13 12:32:43;;;;;;;11.53;10.43;;;16.10;96.80;;;;;;4938102;28;20808;-76
2024/03/13 12:35:11;;;;;;;11.90;10.77;;;16.10;96.80;;;;;;4938169;29;20547;-77
2024/03/13 12:37:39;;;;;;;14.07;12.33;;;16.10;96.60;;;;;;4937324;28;20551;-77
2024/03/13 12:40:08;;;;;;;11.80;10.07;;;16.10;96.20;;;;;;4938227;29;20478;-77
2024/03/13 12:42:37;;;;;;;11.43;10.40;;;16.10;95.50;;;;;;4937974;28;20479;-77
2024/03/13 12:45:05;;;;;;;11.67;10.47;;;16.00;95.40;;;;;;4940791;29;20471;-77
2024/03/13 12:47:33;;;;;;;12.63;11.33;;;16.00;95.70;;;;;;4941721;28;20489;-78
2024/03/13 12:50:00;;;;;;;11.10;10.10;;;15.90;95.20;;;;;;4941957;29;20530;-77
2024/03/13 12:52:29;;;;;;;10.60;9.50;;;15.90;95.30;;;;;;4941757;29;20543;-78